Time,TemperatureF,DewpointF,PressureIn,WindDirection,WindDirectionDegrees,WindSpeedMPH,WindSpeedGustMPH,Humidity,HourlyPrecipIn,Conditions,Clouds,dailyrainin,SoftwareType,DateUTC
2013-10-04 01:29:00,57.0,56.0,30.04,SSW,207,0.0,0.0,96,0.00,,,0.00,,2013-10-04 05:29:00,
2013-10-04 01:59:00,57.0,56.0,30.05,SSW,207,0.0,0.0,97,0.00,,,0.00,,2013-10-04 05:59:00,
2013-10-04 02:19:00,57.0,56.0,30.05,SSW,207,0.0,0.0,97,0.00,,,0.00,,2013-10-04 06:19:00,
2013-10-04 02:27:00,57.0,56.0,30.04,SSW,207,0.0,0.0,97,0.00,,,0.00,,2013-10-04 06:27:00,
2013-10-04 02:59:00,56.0,55.0,30.04,SSW,207,0.0,0.0,97,0.00,,,0.00,,2013-10-04 06:59:00,
2013-10-04 03:18:00,56.0,55.0,30.04,SSW,207,0.0,0.0,97,0.00,,,0.00,,2013-10-04 07:18:00,
2013-10-04 03:28:00,57.0,56.0,30.04,SSW,207,0.0,0.0,97,0.00,,,0.00,,2013-10-04 07:28:00,
2013-10-04 03:47:00,57.0,56.0,30.03,SSW,207,0.0,0.0,97,0.00,,,0.00,,2013-10-04 07:47:00,
2013-10-04 03:59:00,57.0,56.0,30.03,SSW,207,0.0,0.0,97,0.00,,,0.00,,2013-10-04 07:59:00,
2013-10-04 04:18:00,57.0,56.0,30.03,SSW,207,0.0,0.0,97,0.00,,,0.00,,2013-10-04 08:18:00,
2013-10-04 04:27:00,57.0,56.0,30.03,SSW,207,0.0,0.0,97,0.00,,,0.00,,2013-10-04 08:27:00,
2013-10-04 04:59:00,56.0,55.0,30.03,SSW,207,0.0,0.0,97,0.00,,,0.00,,2013-10-04 08:59:00,
2013-10-04 05:17:00,56.0,55.0,30.03,SSE,148,0.0,0.0,98,0.00,,,0.00,,2013-10-04 09:17:00,
2013-10-04 05:27:00,56.0,55.0,30.03,SSE,148,0.0,0.0,97,0.00,,,0.00,,2013-10-04 09:27:00,
2013-10-04 05:49:00,56.0,55.0,30.02,SSE,148,0.0,0.0,97,0.00,,,0.00,,2013-10-04 09:49:00,
2013-10-04 06:01:00,56.0,55.0,30.02,SSE,148,0.0,0.0,97,0.00,,,0.00,,2013-10-04 10:01:00,
2013-10-04 06:21:00,56.0,55.0,30.02,SSE,148,0.0,0.0,97,0.00,,,0.00,,2013-10-04 10:21:00,
2013-10-04 06:30:00,55.0,54.0,30.03,SSE,148,0.0,0.0,97,0.00,,,0.00,,2013-10-04 10:30:00,
2013-10-04 06:50:00,55.0,54.0,30.03,SSE,148,0.0,0.0,98,0.00,,,0.00,,2013-10-04 10:50:00,
2013-10-04 07:01:00,56.0,55.0,30.03,SSE,148,0.0,0.0,98,0.00,,,0.00,,2013-10-04 11:01:00,
2013-10-04 07:20:00,56.0,55.0,30.03,SSE,148,0.0,0.0,98,0.00,,,0.00,,2013-10-04 11:20:00,
2013-10-04 07:30:00,56.0,55.0,30.03,SSE,148,0.0,0.0,98,0.00,,,0.00,,2013-10-04 11:30:00,
2013-10-04 08:01:00,56.0,55.0,30.04,SSE,148,0.0,0.0,98,0.00,,,0.00,,2013-10-04 12:01:00,
2013-10-04 08:20:00,57.0,56.0,30.04,SSE,148,0.0,0.0,98,0.00,,,0.00,,2013-10-04 12:20:00,
2013-10-04 08:30:00,58.0,57.0,30.05,West,269,0.0,0.0,98,0.00,,,0.00,,2013-10-04 12:30:00,
2013-10-04 08:49:00,58.0,57.0,30.05,West,260,0.0,0.0,98,0.00,,,0.00,,2013-10-04 12:49:00,
2013-10-04 09:01:00,59.0,58.0,30.05,West,267,0.0,0.0,98,0.00,,,0.00,,2013-10-04 13:01:00,
2013-10-04 09:20:00,60.0,59.0,30.05,West,267,0.0,0.0,98,0.00,,,0.00,,2013-10-04 13:20:00,
2013-10-04 09:29:00,60.0,59.0,30.05,WNW,300,0.0,0.0,98,0.00,,,0.00,,2013-10-04 13:29:00,
2013-10-04 09:49:00,61.0,60.0,30.04,SE,134,0.0,0.0,98,0.00,,,0.00,,2013-10-04 13:49:00,
2013-10-04 10:00:00,62.0,61.0,30.04,SE,141,0.0,0.0,97,0.00,,,0.00,,2013-10-04 14:00:00,
2013-10-04 10:19:00,62.0,60.0,30.04,NW,304,0.0,2.0,94,0.00,,,0.00,,2013-10-04 14:19:00,
2013-10-04 10:29:00,63.0,61.0,30.04,East,86,0.0,0.0,92,0.00,,,0.00,,2013-10-04 14:29:00,
2013-10-04 10:49:00,64.0,61.0,30.04,ENE,78,0.0,0.0,90,0.00,,,0.00,,2013-10-04 14:49:00,
2013-10-04 11:01:00,64.0,61.0,30.04,North,354,0.0,0.0,90,0.00,,,0.00,,2013-10-04 15:01:00,
2013-10-04 11:20:00,64.0,60.0,30.04,NE,46,0.0,1.0,88,0.00,,,0.00,,2013-10-04 15:20:00,
2013-10-04 11:30:00,64.0,60.0,30.04,NNE,32,0.0,0.0,86,0.00,,,0.00,,2013-10-04 15:30:00,
2013-10-04 11:49:00,64.0,60.0,30.04,ENE,77,0.0,0.0,87,0.00,,,0.00,,2013-10-04 15:49:00,
2013-10-04 12:01:00,64.0,60.0,30.04,NW,312,0.0,0.0,86,0.00,,,0.00,,2013-10-04 16:01:00,
2013-10-04 12:21:00,64.0,59.0,30.04,East,93,0.0,1.0,84,0.00,,,0.00,,2013-10-04 16:21:00,
2013-10-04 12:30:00,64.0,59.0,30.03,NW,313,0.0,1.0,84,0.00,,,0.00,,2013-10-04 16:30:00,
2013-10-04 12:50:00,65.0,60.0,30.03,NNW,340,0.0,1.0,85,0.00,,,0.00,,2013-10-04 16:50:00,
2013-10-04 13:01:00,66.0,61.0,30.03,NNE,30,0.0,1.0,84,0.00,,,0.00,,2013-10-04 17:01:00,
2013-10-04 13:20:00,67.0,62.0,30.02,NNW,342,0.0,0.0,83,0.00,,,0.00,,2013-10-04 17:20:00,
2013-10-04 13:30:00,68.0,61.0,30.02,NW,323,0.0,0.0,79,0.00,,,0.00,,2013-10-04 17:30:00,
2013-10-04 14:04:00,69.0,61.0,30.01,East,98,0.0,0.0,76,0.00,,,0.00,,2013-10-04 18:04:00,
2013-10-04 14:23:00,69.0,61.0,30.00,NE,49,0.0,0.0,76,0.00,,,0.00,,2013-10-04 18:23:00,
2013-10-04 14:31:00,69.0,62.0,30.00,SE,143,0.0,0.0,78,0.00,,,0.00,,2013-10-04 18:31:00,
2013-10-04 14:51:00,70.0,61.0,29.99,ESE,103,0.0,0.0,73,0.00,,,0.00,,2013-10-04 18:51:00,
2013-10-04 14:56:00,71.0,61.0,29.99,NW,317,0.0,3.0,70,0.00,,,0.00,,2013-10-04 18:56:00,
2013-10-04 15:12:00,71.0,62.0,29.99,NW,316,0.0,0.0,73,0.00,,,0.00,,2013-10-04 19:12:00,
2013-10-04 15:22:00,72.0,63.0,29.98,SE,128,0.0,1.0,73,0.00,,,0.00,,2013-10-04 19:22:00,
2013-10-04 15:43:00,74.0,63.0,29.98,South,169,0.0,0.0,69,0.00,,,0.00,,2013-10-04 19:43:00,
2013-10-04 15:53:00,75.0,64.0,29.98,WNW,302,0.0,4.0,68,0.00,,,0.00,,2013-10-04 19:53:00,
2013-10-04 16:11:00,75.0,64.0,29.97,NE,51,0.0,3.0,69,0.00,,,0.00,,2013-10-04 20:11:00,
2013-10-04 16:22:00,75.0,64.0,29.97,WNW,298,0.0,0.0,69,0.00,,,0.00,,2013-10-04 20:22:00,
2013-10-04 16:53:00,72.0,63.0,29.98,ESE,114,0.0,0.0,74,0.00,,,0.00,,2013-10-04 20:53:00,
2013-10-04 17:12:00,74.0,64.0,29.98,SE,135,0.0,1.0,72,0.00,,,0.00,,2013-10-04 21:12:00,
2013-10-04 17:22:00,72.0,64.0,29.98,ENE,64,0.0,0.0,75,0.00,,,0.00,,2013-10-04 21:22:00,
2013-10-04 17:54:00,70.0,62.0,29.98,SW,236,0.0,3.0,77,0.00,,,0.00,,2013-10-04 21:54:00,
2013-10-04 18:12:00,69.0,62.0,29.98,ENE,62,0.0,0.0,79,0.00,,,0.00,,2013-10-04 22:12:00,
2013-10-04 18:23:00,69.0,63.0,29.98,East,89,0.0,4.0,81,0.00,,,0.00,,2013-10-04 22:23:00,
2013-10-04 18:43:00,68.0,62.0,29.99,NNE,16,0.0,0.0,82,0.00,,,0.00,,2013-10-04 22:43:00,
2013-10-04 18:52:00,68.0,63.0,29.99,NNW,330,0.0,0.0,83,0.00,,,0.00,,2013-10-04 22:52:00,
2013-10-04 19:12:00,67.0,62.0,30.00,WNW,283,0.0,0.0,84,0.00,,,0.00,,2013-10-04 23:12:00,
2013-10-04 19:22:00,67.0,62.0,30.01,NNE,15,0.0,0.0,85,0.00,,,0.00,,2013-10-04 23:22:00,
2013-10-04 19:53:00,65.0,61.0,30.01,East,96,0.0,0.0,87,0.00,,,0.00,,2013-10-04 23:53:00,
2013-10-04 20:12:00,65.0,62.0,30.02,ESE,107,0.0,0.0,89,0.00,,,0.00,,2013-10-05 00:12:00,
2013-10-04 20:23:00,64.0,61.0,30.02,ESE,119,0.0,0.0,91,0.00,,,0.00,,2013-10-05 00:23:00,
2013-10-04 20:42:00,64.0,61.0,30.02,ESE,111,0.0,2.0,91,0.00,,,0.00,,2013-10-05 00:42:00,
2013-10-04 20:53:00,63.0,61.0,30.02,WNW,287,0.0,0.0,92,0.00,,,0.00,,2013-10-05 00:53:00,
2013-10-04 21:11:00,63.0,61.0,30.03,NW,311,0.0,0.0,93,0.00,,,0.00,,2013-10-05 01:11:00,
2013-10-04 21:22:00,62.0,60.0,30.03,NW,312,0.0,0.0,93,0.00,,,0.00,,2013-10-05 01:22:00,
2013-10-04 21:43:00,62.0,60.0,30.04,NW,311,0.0,0.0,94,0.00,,,0.00,,2013-10-05 01:43:00,
2013-10-04 21:52:00,62.0,60.0,30.03,NW,321,0.0,0.0,94,0.00,,,0.00,,2013-10-05 01:52:00,
2013-10-04 22:11:00,62.0,60.0,30.03,WNW,295,0.0,1.0,93,0.00,,,0.00,,2013-10-05 02:11:00,
2013-10-04 22:22:00,62.0,60.0,30.03,NW,320,0.0,0.0,93,0.00,,,0.00,,2013-10-05 02:22:00,
2013-10-04 22:42:00,61.0,59.0,30.03,NNE,28,0.0,0.0,93,0.00,,,0.00,,2013-10-05 02:42:00,
2013-10-04 22:52:00,61.0,59.0,30.04,NNE,24,0.0,0.0,94,0.00,,,0.00,,2013-10-05 02:52:00,
2013-10-04 23:12:00,61.0,59.0,30.04,NW,315,0.0,0.0,94,0.00,,,0.00,,2013-10-05 03:12:00,
2013-10-04 23:23:00,61.0,59.0,30.04,NW,314,0.0,0.0,94,0.00,,,0.00,,2013-10-05 03:23:00,
2013-10-04 23:45:00,61.0,59.0,30.04,NW,324,0.0,0.0,94,0.00,,,0.00,,2013-10-05 03:45:00,
2013-10-04 23:55:00,61.0,59.0,30.04,North,5,0.0,0.0,93,0.00,,,0.00,,2013-10-05 03:55:00,